Flight Track Log - Related Links

Times and Time Zones

All times are in EDT time to prevent confusion due to time zone crossing. See the N35246 flight status page for this flight to view local times or setup timezone preferences in your user account.

Time Position Orientation Groundspeed Altitude Reporting Facility
EDT Latitude Longitude Course Direction KTS MPH feet Rate Location/Type
Tue 10:46:00 AM 26.2678 -80.1325 317° Northwest  Level FlightAware Approximate
Tue 10:47:00 AM 26.2883 -80.1537 317° Northwest  Level FlightAware Approximate
Tue 10:48:00 AM 26.3087 -80.1750 317° Northwest  Level FlightAware Approximate
Tue 10:49:00 AM 26.3323 -80.1911 336° Northwest  Level FlightAware Approximate
Tue 10:50:00 AM 26.3563 -80.2063 318° Northwest  Level FlightAware Approximate
Tue 10:51:00 AM 26.3772 -80.2271 318° Northwest  Level FlightAware Approximate
Tue 10:52:00 AM 26.3980 -80.2480 318° Northwest  Level FlightAware Approximate
Tue 10:53:00 AM 26.4188 -80.2688 318° Northwest  Level FlightAware Approximate
Tue 10:54:00 AM 26.4397 -80.2896 318° Northwest  Level FlightAware Approximate
Tue 10:55:00 AM 26.4605 -80.3104 318° Northwest  Level FlightAware Approximate
Tue 10:56:00 AM 26.4813 -80.3312 318° Northwest  Level FlightAware Approximate
Tue 10:57:00 AM 26.5021 -80.3521 318° Northwest  Level FlightAware Approximate
Tue 10:58:00 AM 26.5230 -80.3729 318° Northwest  Level FlightAware Approximate
Tue 10:59:00 AM 26.5438 -80.3938 318° Northwest  Level FlightAware Approximate
Tue 11:00:00 AM 26.5646 -80.4146 318° Northwest  Level FlightAware Approximate
Tue 11:01:00 AM 26.5829 -80.4382 310° West  Level FlightAware Approximate
Tue 11:02:00 AM 26.6009 -80.4622 310° West  Level FlightAware Approximate
Tue 11:03:00 AM 26.6189 -80.4861 310° West  Level FlightAware Approximate
Tue 11:04:00 AM 26.6368 -80.5100 310° West  Level FlightAware Approximate
Tue 11:05:00 AM 26.6548 -80.5340 310° West  Level FlightAware Approximate
Tue 11:06:00 AM 26.6728 -80.5579 310° West  Level FlightAware Approximate
Tue 11:07:00 AM 26.6907 -80.5819 310° West  Level FlightAware Approximate
Tue 11:08:00 AM 26.7087 -80.6059 310° West  Level FlightAware Approximate
Tue 11:09:00 AM 26.7267 -80.6299 310° West  Level FlightAware Approximate
Tue 11:10:00 AM 26.7446 -80.6538 310° West  Level FlightAware Approximate
Tue 11:11:00 AM 26.7626 -80.6778 310° West  Level FlightAware Approximate
Tue 11:12:00 AM 26.7882 -80.6833 North  Level FlightAware Approximate
Tue 11:13:00 AM 26.7850 -80.6934 360° North  Level Estimated
Tue 11:14:00 AM 26.7850 -80.6934 North  Level Estimated
Tue 11:15:00 AM 26.7850 -80.6934 180° South  Level Estimated
Tue 11:16:00 AM 26.7850 -80.6934 101° East  Level Estimated
Tue 11:17:00 AM 26.7850 -80.6934 180° South  Level Estimated
Tue 11:18:00 AM 26.7850 -80.6934 16° North  Level Estimated
Tue 11:19:00 AM 26.7850 -80.6934 North  Level Estimated
Tue 11:20:00 AM 26.7850 -80.6934 180° South  Level Estimated
Tue 11:21:00 AM 26.7850 -80.6934 101° East  Level Estimated
Tue 11:22:00 AM 26.7850 -80.6934 180° South  Level Estimated
Tue 11:23:00 AM 26.7850 -80.6934 16° North  Level Estimated
Tue 11:24:00 AM 26.7850 -80.6934 North  Level Estimated
Tue 11:25:00 AM 26.7850 -80.6934 180° South  Level Estimated
Tue 11:25:31 AM 26.2431 -80.1044 180° South 65 75 200  Level Miami Center
Tue 11:26:00 AM 26.7850 -80.6934 101° East  Level Estimated
Tue 11:26:51 AM 26.2556 -80.1053 357° North 90 104 900  Level Miami Center
Tue 11:27:00 AM 26.7850 -80.6934 180° South  Level Estimated
Tue 11:27:09 AM 26.2583 -80.1128 292° West 87 100 1,100  Level Miami Center
Tue 11:27:52 AM 26.2581 -80.1333 269° West 91 105 1,400 484 Climbing Miami Center
Tue 11:28:00 AM 26.7850 -80.6934 16° North  Level Estimated
Tue 11:28:11 AM 26.2583 -80.1439 272° West 91 105 1,600  Level Miami Center
Tue 11:28:53 AM 26.2603 -80.1636 276° West 93 107 1,800 290 Climbing Miami Center
Tue 11:29:00 AM 26.7850 -80.6934 North  Level Estimated
Tue 11:29:13 AM 26.2669 -80.1697 321° Northwest 92 106 1,900  Level Miami Center
Tue 11:29:54 AM 26.2781 -80.1836 312° West 88 101 2,200 387 Climbing Miami Center
Tue 11:30:00 AM 26.7850 -80.6934 180° South  Level Estimated
Tue 11:30:15 AM 26.2839 -80.1894 318° Northwest 92 106 2,300  Level Miami Center
Tue 11:30:55 AM 26.2956 -80.2036 313° West 90 104 2,700 484 Climbing Miami Center
Tue 11:31:17 AM 26.3039 -80.2106 323° Northwest 91 105 2,800 393 Climbing Miami Center
Tue 11:31:56 AM 26.3133 -80.2211 315° West 87 100 3,100 387 Climbing Miami Center
Tue 11:32:19 AM 26.3214 -80.2289 319° Northwest 91 105 3,200 436 Climbing Miami Center
Tue 11:32:51 AM 26.3311 -80.2389 317° Northwest 86 99 3,500 484 Climbing Miami Center
Tue 11:33:21 AM 26.3397 -80.2483 315° West 89 102 3,700 323 Climbing Miami Center
Tue 11:34:24 AM 26.3567 -80.2675 315° West 87 100 4,000 144 Climbing Miami Center
Tue 11:35:26 AM 26.3797 -80.2869 323° Northwest 94 108 4,000 -48 Level Miami Center
Tue 11:36:28 AM 26.4047 -80.3061 326° Northwest 107 123 3,900 -48 Descending Miami Center
Tue 11:37:30 AM 26.4281 -80.3236 326° Northwest 92 106 3,900 48 Level Miami Center
Tue 11:38:32 AM 26.4481 -80.3433 319° Northwest 94 108 4,000  Climbing Miami Center
Tue 11:39:34 AM 26.4686 -80.3686 312° West 101 116 3,900  Descending Miami Center
Tue 11:40:36 AM 26.4892 -80.3883 319° Northwest 96 110 4,000 -48 Climbing Miami Center
Tue 11:41:38 AM 26.5044 -80.4136 304° West 97 112 3,800 -387 Descending Miami Center
Tue 11:42:40 AM 26.5150 -80.4486 289° West 107 123 3,200 -387 Descending Miami Center
Tue 11:43:42 AM 26.5286 -80.4742 301° West 104 120 3,000 -97 Descending Miami Center
Tue 11:44:44 AM 26.5572 -80.4756 358° North 93 107 3,000  Level Miami Center
Tue 11:45:47 AM 26.5828 -80.4764 358° North 94 108 3,000  Level Miami Center
Tue 11:46:49 AM 26.6064 -80.4961 323° Northwest 95 109 3,000 -48 Level Miami Center
Tue 11:47:51 AM 26.6247 -80.5175 314° West 96 110 2,900  Descending Miami Center
Tue 11:48:53 AM 26.6467 -80.5392 319° Northwest 96 110 3,000  Climbing Miami Center
Tue 11:49:55 AM 26.6700 -80.5614 320° Northwest 110 127 2,900 -48 Descending Miami Center
Tue 11:50:57 AM 26.6894 -80.5917 306° West 116 133 2,900 48 Level Miami Center
Tue 11:51:59 AM 26.7114 -80.6203 311° West 116 133 3,000  Climbing Miami Center
Tue 11:53:01 AM 26.7322 -80.6456 313° West 110 127 2,900 -48 Descending Miami Center
Tue 11:54:03 AM 26.7589 -80.6667 325° Northwest 110 127 2,900 -48 Level Miami Center
Tue 11:55:05 AM 26.7844 -80.6875 324° Northwest 111 128 2,800 -384 Descending Miami Center
Tue 11:56:08 AM 26.8136 -80.6978 343° North 109 125 2,100 -384 Descending Miami Center
Tue 11:57:10 AM 26.8383 -80.6847 25° Northeast 96 110 2,000 -48 Descending Miami Center
Tue 11:58:12 AM 26.8658 -80.6889 352° North 103 119 2,000  Level Miami Center
Tue 11:59:14 AM 26.8853 -80.6700 41° Northeast 96 110 2,000 -48 Level Miami Center
Tue 12:00:16 PM 26.9011 -80.6728 351° North 110 127 1,900  Descending Miami Center
Tue 12:01:19 PM 26.8786 -80.6853 206° Southwest 91 105 2,000 -48 Climbing Miami Center
Tue 12:02:21 PM 26.8544 -80.6886 187° South 87 100 1,800 -435 Descending Miami Center
Tue 12:03:23 PM 26.8297 -80.6894 182° South 87 100 1,100 -435 Descending Miami Center
Tue 12:04:25 PM 26.8036 -80.6878 177° South 88 101 900 145 Descending Miami Center
Tue 12:05:27 PM 26.7975 -80.6742 117° Southeast 86 99 1,400 384 Climbing Miami Center
Tue 12:06:30 PM 26.8164 -80.6750 358° North 81 93 1,700 286 Climbing Miami Center

Login

Don't have an account? Register now (free) for customized features, flight alerts, and more!